Terminal Aerodrome Forecast
Issued by NWS Twin Cities, MN

Home | Current Version | Previous Version | Graphics & Text | Print | Product List | Glossary On
Versions: 1 2 3 4 5 6 7 8 9 10 11 12 13 14 15 16 17 18 19
447
FTUS43 KMPX 181720
TAFSTC
TAF
KSTC 181720Z 1818/1918 29007KT P6SM SCT200
     FM190000 VRB03KT P6SM BKN200
     FM191400 13006KT P6SM BKN150=

USA.gov is the U.S. government's official web portal to all federal, state and local government web resources and services.